Wetterdaten: Samstag, 23.01.2010
Datum Zeit Temp. A. Feuchte A. Luftdruck Regen Wind Richtung Richtung Sonnenschein UV Solar Windben
23.01.2010 00:00 -3,3 C 88 % 1026,2 hPa 0,0 mm 4,8 km/h (1 Bft) O-SO 112 0 min 0 UV-I 0 W/m 14,5 km/h (3 Bft)
23.01.2010 00:10 -3,3 C 88 % 1026,3 hPa 0,0 mm 4,8 km/h (1 Bft) O-SO 112 0 min 0 UV-I 0 W/m 16,1 km/h (3 Bft)
23.01.2010 00:20 -3,4 C 88 % 1026,2 hPa 0,0 mm 3,2 km/h (1 Bft) O-SO 112 0 min 0 UV-I 0 W/m 11,3 km/h (2 Bft)
23.01.2010 00:30 -3,4 C 88 % 1026,0 hPa 0,0 mm 4,8 km/h (1 Bft) O-SO 112 0 min 0 UV-I 0 W/m 16,1 km/h (3 Bft)
23.01.2010 00:40 -3,5 C 88 % 1026,0 hPa 0,0 mm 4,8 km/h (1 Bft) O-SO 112 0 min 0 UV-I 0 W/m 14,5 km/h (3 Bft)
23.01.2010 00:50 -3,6 C 88 % 1026,0 hPa 0,0 mm 4,8 km/h (1 Bft) O-SO 112 0 min 0 UV-I 0 W/m 11,3 km/h (2 Bft)
23.01.2010 01:00 -3,6 C 88 % 1026,0 hPa 0,0 mm 3,2 km/h (1 Bft) O-SO 112 0 min 0 UV-I 0 W/m 11,3 km/h (2 Bft)
23.01.2010 01:10 -3,6 C 88 % 1026,0 hPa 0,0 mm 3,2 km/h (1 Bft) O 90 0 min 0 UV-I 0 W/m 9,7 km/h (2 Bft)
23.01.2010 01:20 -3,6 C 88 % 1026,0 hPa 0,0 mm 1,6 km/h (1 Bft) SO 135 0 min 0 UV-I 0 W/m 8,0 km/h (2 Bft)
23.01.2010 01:30 -3,6 C 88 % 1025,9 hPa 0,0 mm 6,4 km/h (2 Bft) O 90 0 min 0 UV-I 0 W/m 16,1 km/h (3 Bft)
23.01.2010 01:40 -3,6 C 88 % 1025,8 hPa 0,0 mm 6,4 km/h (2 Bft) O-SO 112 0 min 0 UV-I 0 W/m 17,7 km/h (3 Bft)
23.01.2010 01:50 -3,6 C 88 % 1025,7 hPa 0,0 mm 4,8 km/h (1 Bft) O-SO 112 0 min 0 UV-I 0 W/m 14,5 km/h (3 Bft)
23.01.2010 02:00 -3,6 C 89 % 1025,7 hPa 0,0 mm 4,8 km/h (1 Bft) O 90 0 min 0 UV-I 0 W/m 14,5 km/h (3 Bft)
23.01.2010 02:10 -3,6 C 88 % 1025,7 hPa 0,0 mm 3,2 km/h (1 Bft) O 90 0 min 0 UV-I 0 W/m 11,3 km/h (2 Bft)
23.01.2010 02:20 -3,6 C 88 % 1025,6 hPa 0,0 mm 3,2 km/h (1 Bft) O-SO 112 0 min 0 UV-I 0 W/m 9,7 km/h (2 Bft)
23.01.2010 02:30 -3,7 C 88 % 1025,6 hPa 0,0 mm 3,2 km/h (1 Bft) O-SO 112 0 min 0 UV-I 0 W/m 9,7 km/h (2 Bft)
23.01.2010 02:40 -3,7 C 88 % 1025,5 hPa 0,0 mm 3,2 km/h (1 Bft) O-SO 112 0 min 0 UV-I 0 W/m 8,0 km/h (2 Bft)
23.01.2010 02:50 -3,8 C 88 % 1025,4 hPa 0,0 mm 3,2 km/h (1 Bft) O-SO 112 0 min 0 UV-I 0 W/m 9,7 km/h (2 Bft)
23.01.2010 03:00 -3,8 C 88 % 1025,4 hPa 0,0 mm 1,6 km/h (1 Bft) O-SO 112 0 min 0 UV-I 0 W/m 9,7 km/h (2 Bft)
23.01.2010 03:10 -3,9 C 88 % 1025,4 hPa 0,0 mm 3,2 km/h (1 Bft) O-SO 112 0 min 0 UV-I 0 W/m 6,4 km/h (2 Bft)
23.01.2010 03:20 -4,0 C 88 % 1025,4 hPa 0,0 mm 4,8 km/h (1 Bft) O-SO 112 0 min 0 UV-I 0 W/m 9,7 km/h (2 Bft)
23.01.2010 03:30 -4,0 C 88 % 1025,4 hPa 0,0 mm 4,8 km/h (1 Bft) O-SO 112 0 min 0 UV-I 0 W/m 11,3 km/h (2 Bft)
23.01.2010 03:40 -4,1 C 88 % 1025,4 hPa 0,0 mm 3,2 km/h (1 Bft) O-SO 112 0 min 0 UV-I 0 W/m 9,7 km/h (2 Bft)
23.01.2010 03:50 -4,1 C 88 % 1025,4 hPa 0,0 mm 4,8 km/h (1 Bft) O-SO 112 0 min 0 UV-I 0 W/m 16,1 km/h (3 Bft)
23.01.2010 04:00 -4,1 C 88 % 1025,3 hPa 0,0 mm 3,2 km/h (1 Bft) O-SO 112 0 min 0 UV-I 0 W/m 8,0 km/h (2 Bft)
23.01.2010 04:10 -4,1 C 88 % 1025,3 hPa 0,0 mm 3,2 km/h (1 Bft) O-SO 112 0 min 0 UV-I 0 W/m 11,3 km/h (2 Bft)
23.01.2010 04:20 -4,2 C 88 % 1025,2 hPa 0,0 mm 4,8 km/h (1 Bft) O-SO 112 0 min 0 UV-I 0 W/m 11,3 km/h (2 Bft)
23.01.2010 04:30 -4,2 C 88 % 1025,1 hPa 0,0 mm 4,8 km/h (1 Bft) O-SO 112 0 min 0 UV-I 0 W/m 14,5 km/h (3 Bft)
23.01.2010 04:40 -4,2 C 88 % 1025,1 hPa 0,0 mm 3,2 km/h (1 Bft) O-SO 112 0 min 0 UV-I 0 W/m 9,7 km/h (2 Bft)
23.01.2010 04:50 -4,2 C 88 % 1024,9 hPa 0,0 mm 6,4 km/h (2 Bft) O 90 0 min 0 UV-I 0 W/m 14,5 km/h (3 Bft)
23.01.2010 05:00 -4,3 C 88 % 1024,9 hPa 0,0 mm 4,8 km/h (1 Bft) O-SO 112 0 min 0 UV-I 0 W/m 16,1 km/h (3 Bft)
23.01.2010 05:10 -4,2 C 88 % 1024,9 hPa 0,0 mm 4,8 km/h (1 Bft) O-SO 112 0 min 0 UV-I 0 W/m 11,3 km/h (2 Bft)
23.01.2010 05:20 -4,2 C 89 % 1024,8 hPa 0,0 mm 4,8 km/h (1 Bft) O-SO 112 0 min 0 UV-I 0 W/m 8,0 km/h (2 Bft)
23.01.2010 05:30 -4,2 C 89 % 1024,7 hPa 0,0 mm 4,8 km/h (1 Bft) O-SO 112 0 min 0 UV-I 0 W/m 11,3 km/h (2 Bft)
23.01.2010 05:40 -4,2 C 89 % 1024,6 hPa 0,0 mm 3,2 km/h (1 Bft) O-SO 112 0 min 0 UV-I 0 W/m 11,3 km/h (2 Bft)
23.01.2010 05:50 -4,2 C 89 % 1024,6 hPa 0,0 mm 3,2 km/h (1 Bft) O-SO 112 0 min 0 UV-I 0 W/m 11,3 km/h (2 Bft)
23.01.2010 06:00 -4,2 C 89 % 1024,6 hPa 0,0 mm 3,2 km/h (1 Bft) O-SO 112 0 min 0 UV-I 0 W/m 11,3 km/h (2 Bft)
23.01.2010 06:10 -4,3 C 89 % 1024,7 hPa 0,0 mm 3,2 km/h (1 Bft) O-SO 112 0 min 0 UV-I 0 W/m 9,7 km/h (2 Bft)
23.01.2010 06:20 -4,3 C 89 % 1024,7 hPa 0,0 mm 3,2 km/h (1 Bft) O-SO 112 0 min 0 UV-I 0 W/m 9,7 km/h (2 Bft)
23.01.2010 06:30 -4,3 C 88 % 1024,7 hPa 0,0 mm 3,2 km/h (1 Bft) O-SO 112 0 min 0 UV-I 0 W/m 9,7 km/h (2 Bft)
23.01.2010 06:40 -4,3 C 88 % 1024,8 hPa 0,0 mm 3,2 km/h (1 Bft) O-SO 112 0 min 0 UV-I 0 W/m 9,7 km/h (2 Bft)
23.01.2010 06:50 -4,3 C 88 % 1024,8 hPa 0,0 mm 3,2 km/h (1 Bft) O-SO 112 0 min 0 UV-I 0 W/m 8,0 km/h (2 Bft)
23.01.2010 07:00 -4,4 C 89 % 1024,7 hPa 0,0 mm 4,8 km/h (1 Bft) O-SO 112 0 min 0 UV-I 0 W/m 11,3 km/h (2 Bft)
23.01.2010 07:10 -4,4 C 89 % 1024,7 hPa 0,0 mm 3,2 km/h (1 Bft) O 90 0 min 0 UV-I 0 W/m 9,7 km/h (2 Bft)
23.01.2010 07:20 -4,4 C 89 % 1024,7 hPa 0,0 mm 6,4 km/h (2 Bft) O 90 0 min 0 UV-I 0 W/m 17,7 km/h (3 Bft)
23.01.2010 07:30 -4,4 C 89 % 1024,6 hPa 0,0 mm 4,8 km/h (1 Bft) O-SO 112 0 min 0 UV-I 0 W/m 11,3 km/h (2 Bft)
23.01.2010 07:40 -4,4 C 89 % 1024,5 hPa 0,0 mm 4,8 km/h (1 Bft) O-SO 112 0 min 0 UV-I 0 W/m 16,1 km/h (3 Bft)
23.01.2010 07:50 -4,5 C 89 % 1024,3 hPa 0,0 mm 6,4 km/h (2 Bft) O 90 0 min 0 UV-I 0 W/m 19,3 km/h (3 Bft)
23.01.2010 08:00 -4,4 C 89 % 1024,2 hPa 0,0 mm 5,0 km/h (1 Bft) O 96 0 min 0 UV-I 0 W/m 9,7 km/h (2 Bft)
23.01.2010 08:10 -4,4 C 89 % 1024,1 hPa 0,0 mm 6,4 km/h (2 Bft) O-SO 112 0 min 0 UV-I 0 W/m 19,3 km/h (3 Bft)
23.01.2010 08:20 -4,4 C 89 % 1024,0 hPa 0,0 mm 8,0 km/h (2 Bft) O-SO 112 0 min 0 UV-I 7 W/m 17,7 km/h (3 Bft)
23.01.2010 08:30 -4,4 C 89 % 1023,9 hPa 0,0 mm 6,4 km/h (2 Bft) O 90 10 min 0 UV-I 14 W/m 17,7 km/h (3 Bft)
23.01.2010 08:40 -4,4 C 89 % 1023,7 hPa 0,0 mm 8,0 km/h (2 Bft) O-SO 112 0 min 0 UV-I 19 W/m 19,3 km/h (3 Bft)
23.01.2010 08:50 -4,3 C 89 % 1024,0 hPa 0,0 mm 8,0 km/h (2 Bft) O-SO 112 0 min 0 UV-I 30 W/m 19,3 km/h (3 Bft)
23.01.2010 09:00 -4,3 C 89 % 1024,0 hPa 0,0 mm 6,4 km/h (2 Bft) O-SO 112 10 min 0 UV-I 49 W/m 16,1 km/h (3 Bft)
23.01.2010 09:10 -4,2 C 89 % 1024,0 hPa 0,0 mm 4,8 km/h (1 Bft) O-SO 112 0 min 0 UV-I 56 W/m 14,5 km/h (3 Bft)
23.01.2010 09:20 -4,1 C 89 % 1024,0 hPa 0,0 mm 4,8 km/h (1 Bft) O 90 0 min 0 UV-I 62 W/m 19,3 km/h (3 Bft)
23.01.2010 09:30 -4,0 C 89 % 1024,2 hPa 0,0 mm 4,8 km/h (1 Bft) O-SO 112 10 min 0 UV-I 79 W/m 11,3 km/h (2 Bft)
23.01.2010 09:40 -3,9 C 90 % 1024,3 hPa 0,0 mm 4,8 km/h (1 Bft) O-SO 112 10 min 0 UV-I 91 W/m 19,3 km/h (3 Bft)
23.01.2010 09:50 -3,6 C 89 % 1024,4 hPa 0,0 mm 9,9 km/h (2 Bft) O 88 0 min 0 UV-I 82 W/m 20,9 km/h (4 Bft)
23.01.2010 10:00 -3,5 C 89 % 1024,4 hPa 0,0 mm 5,3 km/h (1 Bft) O 95 0 min 0 UV-I 102 W/m 16,1 km/h (3 Bft)
23.01.2010 10:10 -3,2 C 89 % 1024,3 hPa 0,0 mm 7,6 km/h (2 Bft) SO 130 10 min 0 UV-I 138 W/m 20,9 km/h (4 Bft)
23.01.2010 10:20 -2,8 C 88 % 1024,4 hPa 0,0 mm 5,9 km/h (2 Bft) O 89 10 min 1 UV-I 174 W/m 14,5 km/h (3 Bft)
23.01.2010 10:30 -2,9 C 87 % 1024,5 hPa 0,0 mm 7,1 km/h (2 Bft) SO 140 10 min 1 UV-I 146 W/m 20,9 km/h (4 Bft)
23.01.2010 10:40 -2,8 C 87 % 1024,4 hPa 0,0 mm 7,0 km/h (2 Bft) O 99 0 min 1 UV-I 139 W/m 22,5 km/h (4 Bft)
23.01.2010 10:50 -2,8 C 86 % 1024,3 hPa 0,0 mm 8,6 km/h (2 Bft) O 79 0 min 1 UV-I 142 W/m 22,5 km/h (4 Bft)
23.01.2010 11:00 -2,8 C 86 % 1024,2 hPa 0,0 mm 7,8 km/h (2 Bft) O-SO 113 0 min 1 UV-I 152 W/m 19,3 km/h (3 Bft)
23.01.2010 11:10 -2,7 C 86 % 1024,4 hPa 0,0 mm 7,8 km/h (2 Bft) O-SO 111 10 min 1 UV-I 188 W/m 19,3 km/h (3 Bft)
23.01.2010 11:20 -2,4 C 86 % 1024,3 hPa 0,0 mm 5,8 km/h (2 Bft) S-SO 158 10 min 1 UV-I 216 W/m 14,5 km/h (3 Bft)
23.01.2010 11:30 -2,4 C 85 % 1024,4 hPa 0,0 mm 8,0 km/h (2 Bft) O 91 10 min 1 UV-I 220 W/m 19,3 km/h (3 Bft)
23.01.2010 11:40 -2,3 C 85 % 1024,3 hPa 0,0 mm 7,0 km/h (2 Bft) O-SO 109 10 min 1 UV-I 186 W/m 17,7 km/h (3 Bft)
23.01.2010 11:50 -2,1 C 85 % 1024,1 hPa 0,0 mm 6,7 km/h (2 Bft) O-SO 109 10 min 1 UV-I 233 W/m 16,1 km/h (3 Bft)
23.01.2010 12:00 -2,1 C 85 % 1024,0 hPa 0,0 mm 6,1 km/h (2 Bft) O-SO 103 10 min 1 UV-I 216 W/m 16,1 km/h (3 Bft)
23.01.2010 12:10 -1,9 C 84 % 1023,7 hPa 0,0 mm 8,7 km/h (2 Bft) O 80 10 min 1 UV-I 300 W/m 20,9 km/h (4 Bft)
23.01.2010 12:20 -1,9 C 84 % 1023,7 hPa 0,0 mm 11,0 km/h (2 Bft) SO 126 10 min 1 UV-I 295 W/m 22,5 km/h (4 Bft)
23.01.2010 12:30 -1,8 C 84 % 1023,8 hPa 0,0 mm 7,8 km/h (2 Bft) O-SO 103 10 min 1 UV-I 255 W/m 17,7 km/h (3 Bft)
23.01.2010 12:40 -1,6 C 83 % 1023,6 hPa 0,0 mm 6,3 km/h (2 Bft) O 98 10 min 1 UV-I 213 W/m 17,7 km/h (3 Bft)
23.01.2010 12:50 -1,6 C 83 % 1023,6 hPa 0,0 mm 6,6 km/h (2 Bft) O-NO 74 10 min 1 UV-I 209 W/m 19,3 km/h (3 Bft)
23.01.2010 13:00 -1,5 C 83 % 1023,7 hPa 0,0 mm 4,0 km/h (1 Bft) SO 138 10 min 1 UV-I 191 W/m 11,3 km/h (2 Bft)
23.01.2010 13:10 -1,7 C 83 % 1023,8 hPa 0,0 mm 9,1 km/h (2 Bft) O 91 10 min 1 UV-I 194 W/m 17,7 km/h (3 Bft)
23.01.2010 13:20 -1,6 C 83 % 1023,7 hPa 0,0 mm 8,3 km/h (2 Bft) O-SO 113 10 min 1 UV-I 195 W/m 17,7 km/h (3 Bft)
23.01.2010 13:30 -1,7 C 82 % 1023,6 hPa 0,0 mm 6,4 km/h (2 Bft) O-SO 109 10 min 1 UV-I 189 W/m 17,7 km/h (3 Bft)
23.01.2010 13:40 -1,6 C 82 % 1023,7 hPa 0,0 mm 8,0 km/h (2 Bft) O-NO 73 10 min 1 UV-I 173 W/m 19,3 km/h (3 Bft)
23.01.2010 13:50 -1,6 C 83 % 1023,6 hPa 0,0 mm 6,5 km/h (2 Bft) O-SO 105 10 min 1 UV-I 174 W/m 17,7 km/h (3 Bft)
23.01.2010 14:00 -1,5 C 83 % 1023,6 hPa 0,0 mm 5,4 km/h (1 Bft) O-SO 106 10 min 1 UV-I 165 W/m 14,5 km/h (3 Bft)
23.01.2010 14:10 -1,5 C 83 % 1023,7 hPa 0,0 mm 6,3 km/h (2 Bft) O-SO 113 10 min 1 UV-I 156 W/m 19,3 km/h (3 Bft)
23.01.2010 14:20 -1,7 C 83 % 1023,6 hPa 0,0 mm 6,6 km/h (2 Bft) S-SO 156 10 min 1 UV-I 150 W/m 17,7 km/h (3 Bft)
23.01.2010 14:30 -1,7 C 83 % 1023,7 hPa 0,0 mm 7,1 km/h (2 Bft) O 93 0 min 1 UV-I 134 W/m 20,9 km/h (4 Bft)
23.01.2010 14:40 -1,7 C 83 % 1023,7 hPa 0,0 mm 6,3 km/h (2 Bft) O 90 0 min 1 UV-I 117 W/m 17,7 km/h (3 Bft)
23.01.2010 14:50 -1,8 C 83 % 1023,6 hPa 0,0 mm 6,0 km/h (2 Bft) O-SO 109 0 min 0 UV-I 104 W/m 17,7 km/h (3 Bft)
23.01.2010 15:00 -1,8 C 84 % 1023,5 hPa 0,0 mm 8,6 km/h (2 Bft) SO 128 0 min 0 UV-I 89 W/m 19,3 km/h (3 Bft)
23.01.2010 15:10 -1,8 C 84 % 1023,5 hPa 0,0 mm 7,2 km/h (2 Bft) O-SO 110 0 min 0 UV-I 81 W/m 16,1 km/h (3 Bft)
23.01.2010 15:20 -1,9 C 84 % 1023,4 hPa 0,0 mm 7,7 km/h (2 Bft) O 101 0 min 0 UV-I 69 W/m 19,3 km/h (3 Bft)
23.01.2010 15:30 -1,9 C 84 % 1023,2 hPa 0,0 mm 8,2 km/h (2 Bft) SO 133 0 min 0 UV-I 62 W/m 17,7 km/h (3 Bft)
23.01.2010 15:40 -1,9 C 84 % 1023,0 hPa 0,0 mm 7,9 km/h (2 Bft) SO 142 0 min 0 UV-I 54 W/m 17,7 km/h (3 Bft)
23.01.2010 15:50 -1,9 C 84 % 1023,0 hPa 0,0 mm 7,8 km/h (2 Bft) O-SO 103 0 min 0 UV-I 48 W/m 22,5 km/h (4 Bft)
23.01.2010 16:00 -1,9 C 84 % 1023,1 hPa 0,0 mm 2,8 km/h (1 Bft) O 86 0 min 0 UV-I 33 W/m 6,4 km/h (2 Bft)
23.01.2010 16:10 -2,0 C 84 % 1023,2 hPa 0,0 mm 6,4 km/h (2 Bft) O 90 0 min 0 UV-I 30 W/m 17,7 km/h (3 Bft)
23.01.2010 16:20 -2,0 C 84 % 1023,2 hPa 0,0 mm 4,8 km/h (1 Bft) O-SO 112 0 min 0 UV-I 25 W/m 11,3 km/h (2 Bft)
23.01.2010 16:30 -2,0 C 84 % 1023,2 hPa 0,0 mm 4,8 km/h (1 Bft) O-SO 112 0 min 0 UV-I 19 W/m 19,3 km/h (3 Bft)
23.01.2010 16:40 -2,1 C 84 % 1023,2 hPa 0,0 mm 6,4 km/h (2 Bft) O-SO 112 0 min 0 UV-I 12 W/m 17,7 km/h (3 Bft)
23.01.2010 16:50 -2,1 C 84 % 1023,2 hPa 0,0 mm 4,8 km/h (1 Bft) O-SO 112 0 min 0 UV-I 5 W/m 17,7 km/h (3 Bft)
23.01.2010 17:00 -2,1 C 84 % 1023,2 hPa 0,0 mm 6,4 km/h (2 Bft) O-SO 112 0 min 0 UV-I 0 W/m 17,7 km/h (3 Bft)
23.01.2010 17:10 -2,2 C 84 % 1023,2 hPa 0,0 mm 6,4 km/h (2 Bft) O 90 0 min 0 UV-I 0 W/m 16,1 km/h (3 Bft)
23.01.2010 17:20 -2,2 C 84 % 1023,2 hPa 0,0 mm 8,0 km/h (2 Bft) O 90 0 min 0 UV-I 0 W/m 19,3 km/h (3 Bft)
23.01.2010 17:30 -2,2 C 85 % 1023,3 hPa 0,0 mm 4,8 km/h (1 Bft) O-SO 112 0 min 0 UV-I 0 W/m 17,7 km/h (3 Bft)
23.01.2010 17:40 -2,2 C 85 % 1023,3 hPa 0,0 mm 6,4 km/h (2 Bft) O-SO 112 0 min 0 UV-I 0 W/m 17,7 km/h (3 Bft)
23.01.2010 17:50 -2,3 C 85 % 1023,4 hPa 0,0 mm 6,4 km/h (2 Bft) O-SO 112 0 min 0 UV-I 0 W/m 16,1 km/h (3 Bft)
23.01.2010 18:00 -2,3 C 85 % 1023,4 hPa 0,0 mm 6,4 km/h (2 Bft) O-SO 112 0 min 0 UV-I 0 W/m 19,3 km/h (3 Bft)
23.01.2010 18:10 -2,3 C 85 % 1023,5 hPa 0,0 mm 6,4 km/h (2 Bft) O-SO 112 0 min 0 UV-I 0 W/m 19,3 km/h (3 Bft)
23.01.2010 18:20 -2,3 C 85 % 1023,5 hPa 0,0 mm 9,7 km/h (2 Bft) O 90 0 min 0 UV-I 0 W/m 17,7 km/h (3 Bft)
23.01.2010 18:30 -2,3 C 85 % 1023,5 hPa 0,0 mm 8,0 km/h (2 Bft) O-SO 112 0 min 0 UV-I 0 W/m 24,1 km/h (4 Bft)
23.01.2010 18:40 -2,4 C 84 % 1023,3 hPa 0,0 mm 9,7 km/h (2 Bft) O 90 0 min 0 UV-I 0 W/m 24,1 km/h (4 Bft)
23.01.2010 18:50 -2,4 C 84 % 1023,4 hPa 0,0 mm 6,4 km/h (2 Bft) O 90 0 min 0 UV-I 0 W/m 22,5 km/h (4 Bft)
23.01.2010 19:00 -2,4 C 84 % 1023,4 hPa 0,0 mm 9,7 km/h (2 Bft) O 90 0 min 0 UV-I 0 W/m 22,5 km/h (4 Bft)
23.01.2010 19:10 -2,5 C 84 % 1023,4 hPa 0,0 mm 8,0 km/h (2 Bft) O-SO 112 0 min 0 UV-I 0 W/m 24,1 km/h (4 Bft)
23.01.2010 19:20 -2,6 C 84 % 1023,5 hPa 0,0 mm 8,0 km/h (2 Bft) O-SO 112 0 min 0 UV-I 0 W/m 20,9 km/h (4 Bft)
23.01.2010 19:30 -2,6 C 83 % 1023,6 hPa 0,0 mm 6,4 km/h (2 Bft) O-SO 112 0 min 0 UV-I 0 W/m 16,1 km/h (3 Bft)
23.01.2010 19:40 -2,7 C 84 % 1023,7 hPa 0,0 mm 3,2 km/h (1 Bft) O-SO 112 0 min 0 UV-I 0 W/m 9,7 km/h (2 Bft)
23.01.2010 19:50 -2,7 C 84 % 1023,7 hPa 0,0 mm 4,8 km/h (1 Bft) O-SO 112 0 min 0 UV-I 0 W/m 16,1 km/h (3 Bft)
23.01.2010 20:00 -2,8 C 84 % 1023,6 hPa 0,0 mm 6,4 km/h (2 Bft) O-SO 112 0 min 0 UV-I 0 W/m 16,1 km/h (3 Bft)
23.01.2010 20:10 -2,8 C 84 % 1023,7 hPa 0,0 mm 6,4 km/h (2 Bft) O-SO 112 0 min 0 UV-I 0 W/m 20,9 km/h (4 Bft)
23.01.2010 20:20 -2,8 C 84 % 1023,6 hPa 0,0 mm 9,7 km/h (2 Bft) O-SO 112 0 min 0 UV-I 0 W/m 22,5 km/h (4 Bft)
23.01.2010 20:30 -2,9 C 84 % 1023,6 hPa 0,0 mm 8,0 km/h (2 Bft) O-SO 112 0 min 0 UV-I 0 W/m 17,7 km/h (3 Bft)
23.01.2010 20:40 -2,9 C 84 % 1023,6 hPa 0,0 mm 6,4 km/h (2 Bft) O-SO 112 0 min 0 UV-I 0 W/m 16,1 km/h (3 Bft)
23.01.2010 20:50 -2,9 C 84 % 1023,5 hPa 0,0 mm 6,4 km/h (2 Bft) O 90 0 min 0 UV-I 0 W/m 16,1 km/h (3 Bft)
23.01.2010 21:00 -2,9 C 84 % 1023,6 hPa 0,0 mm 6,4 km/h (2 Bft) O-SO 112 0 min 0 UV-I 0 W/m 16,1 km/h (3 Bft)
23.01.2010 21:10 -2,9 C 84 % 1023,6 hPa 0,0 mm 6,4 km/h (2 Bft) O-SO 112 0 min 0 UV-I 0 W/m 19,3 km/h (3 Bft)
23.01.2010 21:20 -2,9 C 84 % 1023,6 hPa 0,0 mm 4,8 km/h (1 Bft) O-SO 112 0 min 0 UV-I 0 W/m 14,5 km/h (3 Bft)
23.01.2010 21:30 -2,9 C 84 % 1023,5 hPa 0,0 mm 8,0 km/h (2 Bft) O-SO 112 0 min 0 UV-I 0 W/m 17,7 km/h (3 Bft)
23.01.2010 21:40 -3,0 C 84 % 1023,6 hPa 0,0 mm 6,2 km/h (2 Bft) O 88 0 min 0 UV-I 0 W/m 17,7 km/h (3 Bft)
23.01.2010 21:50 -3,0 C 84 % 1023,7 hPa 0,0 mm 4,8 km/h (1 Bft) SO 138 0 min 0 UV-I 0 W/m 16,1 km/h (3 Bft)
23.01.2010 22:00 -3,0 C 84 % 1023,6 hPa 0,0 mm 5,4 km/h (1 Bft) O 98 0 min 0 UV-I 0 W/m 19,3 km/h (3 Bft)
23.01.2010 22:10 -3,0 C 84 % 1023,6 hPa 0,0 mm 3,5 km/h (1 Bft) O 86 0 min 0 UV-I 0 W/m 11,3 km/h (2 Bft)
23.01.2010 22:20 -2,9 C 84 % 1023,7 hPa 0,0 mm 4,0 km/h (1 Bft) O 89 0 min 0 UV-I 0 W/m 14,5 km/h (3 Bft)
23.01.2010 22:30 -2,9 C 84 % 1023,7 hPa 0,0 mm 5,6 km/h (1 Bft) SO 133 0 min 0 UV-I 0 W/m 16,1 km/h (3 Bft)
23.01.2010 22:40 -2,9 C 84 % 1023,7 hPa 0,0 mm 4,2 km/h (1 Bft) SO 128 0 min 0 UV-I 0 W/m 16,1 km/h (3 Bft)
23.01.2010 22:50 -2,9 C 84 % 1023,6 hPa 0,0 mm 4,9 km/h (1 Bft) O-SO 103 0 min 0 UV-I 0 W/m 11,3 km/h (2 Bft)
23.01.2010 23:00 -2,8 C 84 % 1023,6 hPa 0,0 mm 5,9 km/h (2 Bft) O-SO 108 0 min 0 UV-I 0 W/m 17,7 km/h (3 Bft)
23.01.2010 23:10 -2,8 C 84 % 1023,7 hPa 0,0 mm 6,7 km/h (2 Bft) O-SO 123 0 min 0 UV-I 0 W/m 17,7 km/h (3 Bft)
23.01.2010 23:20 -2,8 C 83 % 1023,6 hPa 0,0 mm 6,2 km/h (2 Bft) O 96 0 min 0 UV-I 0 W/m 19,3 km/h (3 Bft)
23.01.2010 23:30 -2,8 C 83 % 1023,6 hPa 0,0 mm 8,0 km/h (2 Bft) SO 125 0 min 0 UV-I 0 W/m 19,3 km/h (3 Bft)
23.01.2010 23:40 -2,9 C 83 % 1023,5 hPa 0,0 mm 7,5 km/h (2 Bft) O 101 0 min 0 UV-I 0 W/m 20,9 km/h (4 Bft)
23.01.2010 23:50 -2,9 C 83 % 1023,5 hPa 0,0 mm 8,7 km/h (2 Bft) O-SO 115 0 min 0 UV-I 0 W/m 19,3 km/h (3 Bft)
_ Min-Zeit 07:40 13:30 15:40 - 01:20 - - - - - 03:10
Minimum _ -4,5 C 82 % 1023,0 hPa - 1,6 km/h (1 Bft) - - - - - 6,4 km/h (2 Bft)
_ Max-Zeit 13:00 09:40 00:10 00:00 12:20 - - 08:30 12:10 12:10 18:30
Maximum _ -1,4 C 90 % 1026,3 hPa 0,0 mm 11,0 km/h
SO (2 Bft)
- - 10 min 1 UV-I 300 W/m 24,1 km/h
SO (4 Bft)
Durchschnitt _ -3,1 C 86 % 1024,2 hPa #0,0 mm 5,8 km/h (2 Bft) O-SO - #4:30 h 1 UV-I 125 W/m 15,8 km/h (3 Bft)